sensor_id;sensor_type;location;lat;lon;timestamp;P1;durP1;ratioP1;P2;durP2;ratioP2
81026;SDS011;70506;49.320;8.446;2024-02-26T00:01:50;0.75;;;0.60;;
81026;SDS011;70506;49.320;8.446;2024-02-26T00:04:16;1.00;;;0.70;;
81026;SDS011;70506;49.320;8.446;2024-02-26T00:06:41;0.93;;;0.70;;
81026;SDS011;70506;49.320;8.446;2024-02-26T00:09:09;0.90;;;0.70;;
81026;SDS011;70506;49.320;8.446;2024-02-26T00:11:37;2.00;;;0.68;;
81026;SDS011;70506;49.320;8.446;2024-02-26T00:14:03;1.08;;;0.75;;
81026;SDS011;70506;49.320;8.446;2024-02-26T00:16:29;1.23;;;0.63;;
81026;SDS011;70506;49.320;8.446;2024-02-26T00:18:54;1.30;;;0.70;;
81026;SDS011;70506;49.320;8.446;2024-02-26T00:21:19;3.40;;;0.90;;
81026;SDS011;70506;49.320;8.446;2024-02-26T00:23:45;2.20;;;0.70;;
81026;SDS011;70506;49.320;8.446;2024-02-26T00:26:10;0.83;;;0.63;;
81026;SDS011;70506;49.320;8.446;2024-02-26T00:28:36;1.65;;;0.98;;
81026;SDS011;70506;49.320;8.446;2024-02-26T00:31:01;0.93;;;0.63;;
81026;SDS011;70506;49.320;8.446;2024-02-26T00:33:27;1.77;;;0.70;;
81026;SDS011;70506;49.320;8.446;2024-02-26T00:35:52;3.23;;;0.77;;
81026;SDS011;70506;49.320;8.446;2024-02-26T00:38:18;2.83;;;0.77;;
81026;SDS011;70506;49.320;8.446;2024-02-26T00:40:43;1.80;;;0.67;;
81026;SDS011;70506;49.320;8.446;2024-02-26T00:43:08;2.65;;;1.05;;
81026;SDS011;70506;49.320;8.446;2024-02-26T00:45:34;1.93;;;0.73;;
81026;SDS011;70506;49.320;8.446;2024-02-26T00:47:59;1.05;;;0.60;;
81026;SDS011;70506;49.320;8.446;2024-02-26T00:50:33;1.52;;;0.70;;
81026;SDS011;70506;49.320;8.446;2024-02-26T00:52:59;2.15;;;0.80;;
81026;SDS011;70506;49.320;8.446;2024-02-26T00:55:25;0.82;;;0.50;;
81026;SDS011;70506;49.320;8.446;2024-02-26T00:57:50;2.70;;;0.77;;
81026;SDS011;70506;49.320;8.446;2024-02-26T01:00:16;2.03;;;0.88;;
81026;SDS011;70506;49.320;8.446;2024-02-26T01:02:41;0.70;;;0.70;;
81026;SDS011;70506;49.320;8.446;2024-02-26T01:05:07;3.28;;;0.82;;
81026;SDS011;70506;49.320;8.446;2024-02-26T01:07:34;1.02;;;0.85;;
81026;SDS011;70506;49.320;8.446;2024-02-26T01:12:29;0.77;;;0.65;;
81026;SDS011;70506;49.320;8.446;2024-02-26T01:14:54;1.23;;;0.70;;
81026;SDS011;70506;49.320;8.446;2024-02-26T01:17:20;1.38;;;0.77;;
81026;SDS011;70506;49.320;8.446;2024-02-26T01:19:45;1.47;;;0.83;;
81026;SDS011;70506;49.320;8.446;2024-02-26T01:22:10;0.83;;;0.53;;
81026;SDS011;70506;49.320;8.446;2024-02-26T01:24:36;1.73;;;0.98;;
81026;SDS011;70506;49.320;8.446;2024-02-26T01:27:01;1.60;;;0.80;;
81026;SDS011;70506;49.320;8.446;2024-02-26T01:29:26;1.10;;;0.70;;
81026;SDS011;70506;49.320;8.446;2024-02-26T01:31:52;1.50;;;0.90;;
81026;SDS011;70506;49.320;8.446;2024-02-26T01:34:17;2.13;;;0.70;;
81026;SDS011;70506;49.320;8.446;2024-02-26T01:36:43;1.40;;;0.80;;
81026;SDS011;70506;49.320;8.446;2024-02-26T01:39:09;1.17;;;0.77;;
81026;SDS011;70506;49.320;8.446;2024-02-26T01:41:37;1.05;;;0.70;;
81026;SDS011;70506;49.320;8.446;2024-02-26T01:44:03;3.95;;;0.70;;
81026;SDS011;70506;49.320;8.446;2024-02-26T01:46:28;1.20;;;0.80;;
81026;SDS011;70506;49.320;8.446;2024-02-26T01:48:54;1.00;;;0.60;;
81026;SDS011;70506;49.320;8.446;2024-02-26T01:51:20;1.15;;;0.90;;
81026;SDS011;70506;49.320;8.446;2024-02-26T01:53:45;2.30;;;1.00;;
81026;SDS011;70506;49.320;8.446;2024-02-26T01:56:11;1.70;;;0.73;;
81026;SDS011;70506;49.320;8.446;2024-02-26T01:58:37;1.55;;;0.80;;
81026;SDS011;70506;49.320;8.446;2024-02-26T02:01:02;1.25;;;0.75;;
81026;SDS011;70506;49.320;8.446;2024-02-26T02:03:28;4.32;;;0.90;;
81026;SDS011;70506;49.320;8.446;2024-02-26T02:05:54;1.80;;;0.88;;
81026;SDS011;70506;49.320;8.446;2024-02-26T02:08:19;1.77;;;0.90;;
81026;SDS011;70506;49.320;8.446;2024-02-26T02:10:45;1.20;;;0.82;;
81026;SDS011;70506;49.320;8.446;2024-02-26T02:13:12;1.95;;;0.90;;
81026;SDS011;70506;49.320;8.446;2024-02-26T02:15:38;0.73;;;0.60;;
81026;SDS011;70506;49.320;8.446;2024-02-26T02:18:04;1.02;;;0.60;;
81026;SDS011;70506;49.320;8.446;2024-02-26T02:20:33;2.17;;;0.98;;
81026;SDS011;70506;49.320;8.446;2024-02-26T02:22:59;1.33;;;0.70;;
81026;SDS011;70506;49.320;8.446;2024-02-26T02:25:24;0.40;;;0.35;;
81026;SDS011;70506;49.320;8.446;2024-02-26T02:27:50;0.45;;;0.45;;
81026;SDS011;70506;49.320;8.446;2024-02-26T02:30:15;1.98;;;0.75;;
81026;SDS011;70506;49.320;8.446;2024-02-26T02:32:41;0.98;;;0.50;;
81026;SDS011;70506;49.320;8.446;2024-02-26T02:35:07;1.65;;;0.40;;
81026;SDS011;70506;49.320;8.446;2024-02-26T02:37:32;0.13;;;0.13;;
81026;SDS011;70506;49.320;8.446;2024-02-26T02:39:57;0.30;;;0.20;;
81026;SDS011;70506;49.320;8.446;2024-02-26T02:42:23;0.97;;;0.30;;
81026;SDS011;70506;49.320;8.446;2024-02-26T02:44:49;0.65;;;0.32;;
81026;SDS011;70506;49.320;8.446;2024-02-26T02:47:14;1.23;;;0.50;;
81026;SDS011;70506;49.320;8.446;2024-02-26T02:49:39;0.17;;;0.17;;
81026;SDS011;70506;49.320;8.446;2024-02-26T02:52:05;0.20;;;0.20;;
81026;SDS011;70506;49.320;8.446;2024-02-26T02:54:30;0.47;;;0.27;;
81026;SDS011;70506;49.320;8.446;2024-02-26T02:56:55;1.10;;;0.52;;
81026;SDS011;70506;49.320;8.446;2024-02-26T02:59:21;0.70;;;0.20;;
81026;SDS011;70506;49.320;8.446;2024-02-26T03:01:46;0.50;;;0.20;;
81026;SDS011;70506;49.320;8.446;2024-02-26T03:04:12;0.98;;;0.35;;
81026;SDS011;70506;49.320;8.446;2024-02-26T03:06:37;0.80;;;0.38;;
81026;SDS011;70506;49.320;8.446;2024-02-26T03:09:02;2.33;;;0.43;;
81026;SDS011;70506;49.320;8.446;2024-02-26T03:11:28;0.88;;;0.50;;
81026;SDS011;70506;49.320;8.446;2024-02-26T03:13:53;2.27;;;0.57;;
81026;SDS011;70506;49.320;8.446;2024-02-26T03:16:18;1.60;;;0.40;;
81026;SDS011;70506;49.320;8.446;2024-02-26T03:18:44;0.75;;;0.43;;
81026;SDS011;70506;49.320;8.446;2024-02-26T03:21:09;0.80;;;0.50;;
81026;SDS011;70506;49.320;8.446;2024-02-26T03:23:34;0.67;;;0.20;;
81026;SDS011;70506;49.320;8.446;2024-02-26T03:26:03;1.23;;;0.28;;
81026;SDS011;70506;49.320;8.446;2024-02-26T03:28:29;0.55;;;0.40;;
81026;SDS011;70506;49.320;8.446;2024-02-26T03:30:55;0.65;;;0.40;;
81026;SDS011;70506;49.320;8.446;2024-02-26T03:33:21;0.35;;;0.20;;
81026;SDS011;70506;49.320;8.446;2024-02-26T03:35:46;0.70;;;0.30;;
81026;SDS011;70506;49.320;8.446;2024-02-26T03:38:13;0.30;;;0.20;;
81026;SDS011;70506;49.320;8.446;2024-02-26T03:40:38;0.40;;;0.30;;
81026;SDS011;70506;49.320;8.446;2024-02-26T03:43:03;1.00;;;0.40;;
81026;SDS011;70506;49.320;8.446;2024-02-26T03:45:31;0.70;;;0.35;;
81026;SDS011;70506;49.320;8.446;2024-02-26T03:47:56;0.57;;;0.40;;
81026;SDS011;70506;49.320;8.446;2024-02-26T03:50:21;0.97;;;0.47;;
81026;SDS011;70506;49.320;8.446;2024-02-26T03:52:47;0.60;;;0.38;;
81026;SDS011;70506;49.320;8.446;2024-02-26T03:55:13;0.63;;;0.50;;
81026;SDS011;70506;49.320;8.446;2024-02-26T03:57:38;0.30;;;0.30;;
81026;SDS011;70506;49.320;8.446;2024-02-26T04:00:03;0.53;;;0.50;;
81026;SDS011;70506;49.320;8.446;2024-02-26T04:02:29;0.40;;;0.40;;
81026;SDS011;70506;49.320;8.446;2024-02-26T04:04:54;1.48;;;0.35;;
81026;SDS011;70506;49.320;8.446;2024-02-26T04:07:20;0.00;;;0.00;;
81026;SDS011;70506;49.320;8.446;2024-02-26T04:09:45;0.52;;;0.30;;
81026;SDS011;70506;49.320;8.446;2024-02-26T04:12:10;1.63;;;0.50;;
81026;SDS011;70506;49.320;8.446;2024-02-26T04:14:36;2.80;;;0.32;;
81026;SDS011;70506;49.320;8.446;2024-02-26T04:17:01;0.52;;;0.45;;
81026;SDS011;70506;49.320;8.446;2024-02-26T04:19:27;0.45;;;0.22;;
81026;SDS011;70506;49.320;8.446;2024-02-26T04:21:52;0.30;;;0.30;;
81026;SDS011;70506;49.320;8.446;2024-02-26T04:24:18;1.42;;;0.35;;
81026;SDS011;70506;49.320;8.446;2024-02-26T04:26:43;0.70;;;0.40;;
81026;SDS011;70506;49.320;8.446;2024-02-26T04:29:08;0.73;;;0.30;;
81026;SDS011;70506;49.320;8.446;2024-02-26T04:31:34;0.65;;;0.30;;
81026;SDS011;70506;49.320;8.446;2024-02-26T04:33:59;0.40;;;0.27;;
81026;SDS011;70506;49.320;8.446;2024-02-26T04:36:24;0.40;;;0.30;;
81026;SDS011;70506;49.320;8.446;2024-02-26T04:38:51;0.50;;;0.50;;
81026;SDS011;70506;49.320;8.446;2024-02-26T04:41:16;0.85;;;0.50;;
81026;SDS011;70506;49.320;8.446;2024-02-26T04:43:41;0.70;;;0.50;;
81026;SDS011;70506;49.320;8.446;2024-02-26T04:46:09;0.93;;;0.38;;
81026;SDS011;70506;49.320;8.446;2024-02-26T04:48:35;0.60;;;0.40;;
81026;SDS011;70506;49.320;8.446;2024-02-26T04:51:01;1.02;;;0.50;;
81026;SDS011;70506;49.320;8.446;2024-02-26T04:53:27;0.70;;;0.40;;
81026;SDS011;70506;49.320;8.446;2024-02-26T04:55:52;0.68;;;0.40;;
81026;SDS011;70506;49.320;8.446;2024-02-26T04:58:17;0.73;;;0.60;;
81026;SDS011;70506;49.320;8.446;2024-02-26T05:00:43;1.70;;;0.37;;
81026;SDS011;70506;49.320;8.446;2024-02-26T05:03:08;1.38;;;0.50;;
81026;SDS011;70506;49.320;8.446;2024-02-26T05:05:38;1.13;;;0.50;;
81026;SDS011;70506;49.320;8.446;2024-02-26T05:08:03;0.60;;;0.50;;
81026;SDS011;70506;49.320;8.446;2024-02-26T05:10:28;0.38;;;0.30;;
81026;SDS011;70506;49.320;8.446;2024-02-26T05:12:54;0.40;;;0.37;;
81026;SDS011;70506;49.320;8.446;2024-02-26T05:15:19;0.50;;;0.30;;
81026;SDS011;70506;49.320;8.446;2024-02-26T05:17:44;0.50;;;0.50;;
81026;SDS011;70506;49.320;8.446;2024-02-26T05:20:10;0.30;;;0.30;;
81026;SDS011;70506;49.320;8.446;2024-02-26T05:22:35;1.75;;;0.70;;
81026;SDS011;70506;49.320;8.446;2024-02-26T05:25:02;1.05;;;0.47;;
81026;SDS011;70506;49.320;8.446;2024-02-26T05:27:28;0.45;;;0.30;;
81026;SDS011;70506;49.320;8.446;2024-02-26T05:29:53;0.53;;;0.40;;
81026;SDS011;70506;49.320;8.446;2024-02-26T05:32:19;0.50;;;0.30;;
81026;SDS011;70506;49.320;8.446;2024-02-26T05:34:44;0.57;;;0.52;;
81026;SDS011;70506;49.320;8.446;2024-02-26T05:37:10;1.57;;;0.50;;
81026;SDS011;70506;49.320;8.446;2024-02-26T05:39:35;1.00;;;0.45;;
81026;SDS011;70506;49.320;8.446;2024-02-26T05:42:00;1.88;;;0.68;;
81026;SDS011;70506;49.320;8.446;2024-02-26T05:44:26;0.55;;;0.45;;
81026;SDS011;70506;49.320;8.446;2024-02-26T05:46:51;2.67;;;1.00;;
81026;SDS011;70506;49.320;8.446;2024-02-26T05:49:17;0.67;;;0.50;;
81026;SDS011;70506;49.320;8.446;2024-02-26T05:51:42;1.23;;;0.43;;
81026;SDS011;70506;49.320;8.446;2024-02-26T05:54:07;0.60;;;0.47;;
81026;SDS011;70506;49.320;8.446;2024-02-26T05:56:33;0.73;;;0.40;;
81026;SDS011;70506;49.320;8.446;2024-02-26T05:58:58;1.65;;;0.60;;
81026;SDS011;70506;49.320;8.446;2024-02-26T06:01:24;1.57;;;0.97;;
81026;SDS011;70506;49.320;8.446;2024-02-26T06:03:53;1.00;;;0.60;;
81026;SDS011;70506;49.320;8.446;2024-02-26T06:06:32;1.63;;;0.65;;
81026;SDS011;70506;49.320;8.446;2024-02-26T06:08:58;3.42;;;0.68;;
81026;SDS011;70506;49.320;8.446;2024-02-26T06:11:23;0.43;;;0.40;;
81026;SDS011;70506;49.320;8.446;2024-02-26T06:13:48;1.30;;;0.60;;
81026;SDS011;70506;49.320;8.446;2024-02-26T06:16:14;1.30;;;0.50;;
81026;SDS011;70506;49.320;8.446;2024-02-26T06:18:39;2.53;;;0.73;;
81026;SDS011;70506;49.320;8.446;2024-02-26T06:21:04;0.83;;;0.60;;
81026;SDS011;70506;49.320;8.446;2024-02-26T06:23:34;1.13;;;0.60;;
81026;SDS011;70506;49.320;8.446;2024-02-26T06:25:59;0.40;;;0.40;;
81026;SDS011;70506;49.320;8.446;2024-02-26T06:28:25;0.43;;;0.43;;
81026;SDS011;70506;49.320;8.446;2024-02-26T06:30:50;0.90;;;0.65;;
81026;SDS011;70506;49.320;8.446;2024-02-26T06:33:17;3.38;;;1.10;;
81026;SDS011;70506;49.320;8.446;2024-02-26T06:35:42;0.80;;;0.70;;
81026;SDS011;70506;49.320;8.446;2024-02-26T06:38:09;2.10;;;1.08;;
81026;SDS011;70506;49.320;8.446;2024-02-26T06:40:35;0.70;;;0.52;;
81026;SDS011;70506;49.320;8.446;2024-02-26T06:43:00;0.80;;;0.60;;
81026;SDS011;70506;49.320;8.446;2024-02-26T06:45:25;2.23;;;0.77;;
81026;SDS011;70506;49.320;8.446;2024-02-26T06:47:51;5.97;;;0.95;;
81026;SDS011;70506;49.320;8.446;2024-02-26T06:50:16;2.00;;;0.87;;
81026;SDS011;70506;49.320;8.446;2024-02-26T06:52:43;1.92;;;1.10;;
81026;SDS011;70506;49.320;8.446;2024-02-26T06:55:09;4.10;;;1.00;;
81026;SDS011;70506;49.320;8.446;2024-02-26T06:57:34;1.00;;;0.77;;
81026;SDS011;70506;49.320;8.446;2024-02-26T07:00:00;0.90;;;0.73;;
81026;SDS011;70506;49.320;8.446;2024-02-26T07:02:25;1.17;;;0.80;;
81026;SDS011;70506;49.320;8.446;2024-02-26T07:04:50;2.60;;;0.73;;
81026;SDS011;70506;49.320;8.446;2024-02-26T07:07:16;1.65;;;1.10;;
81026;SDS011;70506;49.320;8.446;2024-02-26T07:09:43;2.28;;;1.00;;
81026;SDS011;70506;49.320;8.446;2024-02-26T07:12:08;1.65;;;0.95;;
81026;SDS011;70506;49.320;8.446;2024-02-26T07:14:33;3.20;;;1.00;;
81026;SDS011;70506;49.320;8.446;2024-02-26T07:16:59;2.65;;;1.25;;
81026;SDS011;70506;49.320;8.446;2024-02-26T07:19:24;1.87;;;0.90;;
81026;SDS011;70506;49.320;8.446;2024-02-26T07:21:49;1.70;;;0.93;;
81026;SDS011;70506;49.320;8.446;2024-02-26T07:24:15;1.57;;;0.87;;
81026;SDS011;70506;49.320;8.446;2024-02-26T07:26:40;2.45;;;1.25;;
81026;SDS011;70506;49.320;8.446;2024-02-26T07:29:05;0.93;;;0.80;;
81026;SDS011;70506;49.320;8.446;2024-02-26T07:31:31;5.95;;;1.50;;
81026;SDS011;70506;49.320;8.446;2024-02-26T07:33:56;3.57;;;1.13;;
81026;SDS011;70506;49.320;8.446;2024-02-26T07:36:21;3.60;;;1.43;;
81026;SDS011;70506;49.320;8.446;2024-02-26T07:38:47;2.73;;;1.33;;
81026;SDS011;70506;49.320;8.446;2024-02-26T07:41:12;4.07;;;1.60;;
81026;SDS011;70506;49.320;8.446;2024-02-26T07:43:37;3.50;;;1.30;;
81026;SDS011;70506;49.320;8.446;2024-02-26T07:46:03;2.95;;;1.55;;
81026;SDS011;70506;49.320;8.446;2024-02-26T07:48:28;1.85;;;1.17;;
81026;SDS011;70506;49.320;8.446;2024-02-26T07:50:53;6.87;;;1.37;;
81026;SDS011;70506;49.320;8.446;2024-02-26T07:53:19;4.03;;;1.33;;
81026;SDS011;70506;49.320;8.446;2024-02-26T07:55:44;2.53;;;1.57;;
81026;SDS011;70506;49.320;8.446;2024-02-26T07:58:09;2.80;;;1.30;;
81026;SDS011;70506;49.320;8.446;2024-02-26T08:00:35;3.53;;;1.60;;
81026;SDS011;70506;49.320;8.446;2024-02-26T08:03:00;1.80;;;1.33;;
81026;SDS011;70506;49.320;8.446;2024-02-26T08:05:25;4.75;;;1.55;;
81026;SDS011;70506;49.320;8.446;2024-02-26T08:07:51;4.90;;;1.50;;
81026;SDS011;70506;49.320;8.446;2024-02-26T08:10:16;2.63;;;1.47;;
81026;SDS011;70506;49.320;8.446;2024-02-26T08:12:41;4.10;;;1.85;;
81026;SDS011;70506;49.320;8.446;2024-02-26T08:15:07;6.45;;;1.70;;
81026;SDS011;70506;49.320;8.446;2024-02-26T08:17:33;2.40;;;1.25;;
81026;SDS011;70506;49.320;8.446;2024-02-26T08:19:59;2.08;;;1.23;;
81026;SDS011;70506;49.320;8.446;2024-02-26T08:22:24;2.90;;;1.33;;
81026;SDS011;70506;49.320;8.446;2024-02-26T08:24:50;4.00;;;1.60;;
81026;SDS011;70506;49.320;8.446;2024-02-26T08:27:15;3.60;;;1.33;;
81026;SDS011;70506;49.320;8.446;2024-02-26T08:29:40;3.17;;;1.70;;
81026;SDS011;70506;49.320;8.446;2024-02-26T08:32:06;2.57;;;1.40;;
81026;SDS011;70506;49.320;8.446;2024-02-26T08:34:32;3.88;;;1.60;;
81026;SDS011;70506;49.320;8.446;2024-02-26T08:36:57;2.28;;;1.40;;
81026;SDS011;70506;49.320;8.446;2024-02-26T08:39:23;3.40;;;1.37;;
81026;SDS011;70506;49.320;8.446;2024-02-26T08:41:51;4.70;;;1.30;;
81026;SDS011;70506;49.320;8.446;2024-02-26T08:44:16;3.78;;;1.55;;
81026;SDS011;70506;49.320;8.446;2024-02-26T08:46:42;1.80;;;1.23;;
81026;SDS011;70506;49.320;8.446;2024-02-26T08:49:07;2.40;;;1.53;;
81026;SDS011;70506;49.320;8.446;2024-02-26T08:51:32;2.63;;;1.43;;
81026;SDS011;70506;49.320;8.446;2024-02-26T08:53:58;2.10;;;1.30;;
81026;SDS011;70506;49.320;8.446;2024-02-26T08:56:23;2.23;;;1.17;;
81026;SDS011;70506;49.320;8.446;2024-02-26T08:58:48;2.55;;;1.48;;
81026;SDS011;70506;49.320;8.446;2024-02-26T09:01:15;2.78;;;1.50;;
81026;SDS011;70506;49.320;8.446;2024-02-26T09:03:41;1.40;;;1.10;;
81026;SDS011;70506;49.320;8.446;2024-02-26T09:06:06;2.50;;;1.50;;
81026;SDS011;70506;49.320;8.446;2024-02-26T09:08:32;3.00;;;1.35;;
81026;SDS011;70506;49.320;8.446;2024-02-26T09:10:58;2.55;;;1.25;;
81026;SDS011;70506;49.320;8.446;2024-02-26T09:13:23;1.67;;;1.20;;
81026;SDS011;70506;49.320;8.446;2024-02-26T09:15:48;2.50;;;1.10;;
81026;SDS011;70506;49.320;8.446;2024-02-26T09:18:14;2.83;;;1.13;;
81026;SDS011;70506;49.320;8.446;2024-02-26T09:20:40;1.75;;;1.08;;
81026;SDS011;70506;49.320;8.446;2024-02-26T09:23:05;2.22;;;1.05;;
81026;SDS011;70506;49.320;8.446;2024-02-26T09:25:31;2.00;;;0.93;;
81026;SDS011;70506;49.320;8.446;2024-02-26T09:27:58;1.73;;;1.02;;
81026;SDS011;70506;49.320;8.446;2024-02-26T09:30:23;2.65;;;1.20;;
81026;SDS011;70506;49.320;8.446;2024-02-26T09:32:49;2.17;;;1.10;;
81026;SDS011;70506;49.320;8.446;2024-02-26T09:35:22;1.83;;;1.30;;
81026;SDS011;70506;49.320;8.446;2024-02-26T09:37:47;2.92;;;1.38;;
81026;SDS011;70506;49.320;8.446;2024-02-26T09:40:14;2.15;;;1.17;;
81026;SDS011;70506;49.320;8.446;2024-02-26T09:42:46;2.38;;;1.10;;
81026;SDS011;70506;49.320;8.446;2024-02-26T09:45:18;3.17;;;1.38;;
81026;SDS011;70506;49.320;8.446;2024-02-26T09:47:44;2.85;;;1.10;;
81026;SDS011;70506;49.320;8.446;2024-02-26T09:50:13;1.65;;;1.05;;
81026;SDS011;70506;49.320;8.446;2024-02-26T09:52:42;2.22;;;1.23;;
81026;SDS011;70506;49.320;8.446;2024-02-26T09:55:08;1.90;;;1.10;;
81026;SDS011;70506;49.320;8.446;2024-02-26T09:57:35;2.53;;;1.20;;
81026;SDS011;70506;49.320;8.446;2024-02-26T10:00:02;1.90;;;1.27;;
81026;SDS011;70506;49.320;8.446;2024-02-26T10:02:30;2.03;;;1.10;;
81026;SDS011;70506;49.320;8.446;2024-02-26T10:04:56;2.33;;;1.10;;
81026;SDS011;70506;49.320;8.446;2024-02-26T10:07:22;2.33;;;1.20;;
81026;SDS011;70506;49.320;8.446;2024-02-26T10:09:48;1.55;;;0.98;;
81026;SDS011;70506;49.320;8.446;2024-02-26T10:12:13;1.90;;;1.20;;
81026;SDS011;70506;49.320;8.446;2024-02-26T10:14:41;1.70;;;0.90;;
81026;SDS011;70506;49.320;8.446;2024-02-26T10:17:07;2.70;;;1.10;;
81026;SDS011;70506;49.320;8.446;2024-02-26T10:19:33;1.80;;;1.10;;
81026;SDS011;70506;49.320;8.446;2024-02-26T10:21:59;1.85;;;1.10;;
81026;SDS011;70506;49.320;8.446;2024-02-26T10:24:25;1.73;;;1.08;;
81026;SDS011;70506;49.320;8.446;2024-02-26T10:26:51;1.50;;;1.05;;
81026;SDS011;70506;49.320;8.446;2024-02-26T10:29:20;5.57;;;1.30;;
81026;SDS011;70506;49.320;8.446;2024-02-26T10:31:46;2.60;;;1.10;;
81026;SDS011;70506;49.320;8.446;2024-02-26T10:34:11;2.92;;;1.50;;
81026;SDS011;70506;49.320;8.446;2024-02-26T10:36:38;2.25;;;1.20;;
81026;SDS011;70506;49.320;8.446;2024-02-26T10:39:08;2.33;;;1.30;;
81026;SDS011;70506;49.320;8.446;2024-02-26T10:41:33;2.45;;;1.02;;
81026;SDS011;70506;49.320;8.446;2024-02-26T10:43:59;2.92;;;1.10;;
81026;SDS011;70506;49.320;8.446;2024-02-26T10:46:27;1.45;;;1.08;;
81026;SDS011;70506;49.320;8.446;2024-02-26T10:48:53;2.85;;;1.13;;
81026;SDS011;70506;49.320;8.446;2024-02-26T10:51:28;2.25;;;1.10;;
81026;SDS011;70506;49.320;8.446;2024-02-26T10:53:55;3.88;;;1.30;;
81026;SDS011;70506;49.320;8.446;2024-02-26T10:56:26;2.60;;;1.27;;
81026;SDS011;70506;49.320;8.446;2024-02-26T10:58:53;2.10;;;1.15;;
81026;SDS011;70506;49.320;8.446;2024-02-26T11:01:20;1.52;;;0.85;;
81026;SDS011;70506;49.320;8.446;2024-02-26T11:03:48;3.55;;;1.17;;
81026;SDS011;70506;49.320;8.446;2024-02-26T11:06:15;2.03;;;1.20;;
81026;SDS011;70506;49.320;8.446;2024-02-26T11:08:40;2.83;;;1.25;;
81026;SDS011;70506;49.320;8.446;2024-02-26T11:11:06;1.30;;;1.00;;
81026;SDS011;70506;49.320;8.446;2024-02-26T11:13:32;2.20;;;1.13;;
81026;SDS011;70506;49.320;8.446;2024-02-26T11:18:23;2.87;;;1.23;;
81026;SDS011;70506;49.320;8.446;2024-02-26T11:20:51;1.88;;;1.05;;
81026;SDS011;70506;49.320;8.446;2024-02-26T11:23:19;2.55;;;1.27;;
81026;SDS011;70506;49.320;8.446;2024-02-26T11:25:45;1.53;;;0.90;;
81026;SDS011;70506;49.320;8.446;2024-02-26T11:28:14;1.83;;;1.10;;
81026;SDS011;70506;49.320;8.446;2024-02-26T11:30:42;1.98;;;1.20;;
81026;SDS011;70506;49.320;8.446;2024-02-26T11:33:09;2.35;;;1.20;;
81026;SDS011;70506;49.320;8.446;2024-02-26T11:38:04;3.78;;;1.10;;
81026;SDS011;70506;49.320;8.446;2024-02-26T11:40:31;2.55;;;1.15;;
81026;SDS011;70506;49.320;8.446;2024-02-26T11:42:57;2.30;;;1.15;;
81026;SDS011;70506;49.320;8.446;2024-02-26T11:48:14;2.92;;;0.98;;
81026;SDS011;70506;49.320;8.446;2024-02-26T11:50:45;3.53;;;1.40;;
81026;SDS011;70506;49.320;8.446;2024-02-26T11:53:27;1.75;;;1.00;;
81026;SDS011;70506;49.320;8.446;2024-02-26T11:56:12;2.53;;;1.10;;
81026;SDS011;70506;49.320;8.446;2024-02-26T11:58:41;2.03;;;1.15;;
81026;SDS011;70506;49.320;8.446;2024-02-26T12:01:35;3.50;;;1.25;;
81026;SDS011;70506;49.320;8.446;2024-02-26T12:04:07;2.15;;;1.20;;
81026;SDS011;70506;49.320;8.446;2024-02-26T12:06:40;2.92;;;1.13;;
81026;SDS011;70506;49.320;8.446;2024-02-26T12:09:07;2.35;;;1.23;;
81026;SDS011;70506;49.320;8.446;2024-02-26T12:11:33;2.90;;;1.65;;
81026;SDS011;70506;49.320;8.446;2024-02-26T12:14:03;3.92;;;1.13;;
81026;SDS011;70506;49.320;8.446;2024-02-26T12:16:38;1.75;;;0.90;;
81026;SDS011;70506;49.320;8.446;2024-02-26T12:19:04;1.95;;;1.00;;
81026;SDS011;70506;49.320;8.446;2024-02-26T12:21:31;2.22;;;1.10;;
81026;SDS011;70506;49.320;8.446;2024-02-26T12:24:12;2.65;;;1.08;;
81026;SDS011;70506;49.320;8.446;2024-02-26T12:26:39;1.20;;;0.95;;
81026;SDS011;70506;49.320;8.446;2024-02-26T12:29:04;2.08;;;1.23;;
81026;SDS011;70506;49.320;8.446;2024-02-26T12:31:30;1.90;;;1.27;;
81026;SDS011;70506;49.320;8.446;2024-02-26T12:33:56;2.30;;;1.08;;
81026;SDS011;70506;49.320;8.446;2024-02-26T12:36:22;3.15;;;1.23;;
81026;SDS011;70506;49.320;8.446;2024-02-26T12:41:13;4.50;;;1.20;;
81026;SDS011;70506;49.320;8.446;2024-02-26T12:43:39;2.05;;;1.02;;
81026;SDS011;70506;49.320;8.446;2024-02-26T12:46:06;2.80;;;0.98;;
81026;SDS011;70506;49.320;8.446;2024-02-26T12:50:56;2.00;;;1.20;;
81026;SDS011;70506;49.320;8.446;2024-02-26T12:55:47;1.20;;;0.90;;
81026;SDS011;70506;49.320;8.446;2024-02-26T12:58:12;1.67;;;0.95;;
81026;SDS011;70506;49.320;8.446;2024-02-26T13:00:38;1.50;;;0.98;;
81026;SDS011;70506;49.320;8.446;2024-02-26T13:03:04;1.63;;;0.98;;
81026;SDS011;70506;49.320;8.446;2024-02-26T13:05:29;1.45;;;0.75;;
81026;SDS011;70506;49.320;8.446;2024-02-26T13:07:55;1.95;;;0.82;;
81026;SDS011;70506;49.320;8.446;2024-02-26T13:10:21;1.57;;;1.00;;
81026;SDS011;70506;49.320;8.446;2024-02-26T13:12:47;1.17;;;0.83;;
81026;SDS011;70506;49.320;8.446;2024-02-26T13:15:19;0.95;;;0.70;;
81026;SDS011;70506;49.320;8.446;2024-02-26T13:17:46;1.63;;;1.00;;
81026;SDS011;70506;49.320;8.446;2024-02-26T13:20:12;1.00;;;0.73;;
81026;SDS011;70506;49.320;8.446;2024-02-26T13:22:38;1.90;;;1.00;;
81026;SDS011;70506;49.320;8.446;2024-02-26T13:25:04;1.20;;;0.80;;
81026;SDS011;70506;49.320;8.446;2024-02-26T13:27:32;1.52;;;0.68;;
81026;SDS011;70506;49.320;8.446;2024-02-26T13:30:04;1.02;;;0.60;;
81026;SDS011;70506;49.320;8.446;2024-02-26T13:32:35;0.85;;;0.65;;
81026;SDS011;70506;49.320;8.446;2024-02-26T13:35:13;2.47;;;0.80;;
81026;SDS011;70506;49.320;8.446;2024-02-26T13:37:39;1.48;;;0.90;;
81026;SDS011;70506;49.320;8.446;2024-02-26T13:40:08;1.85;;;0.73;;
81026;SDS011;70506;49.320;8.446;2024-02-26T13:42:35;1.23;;;0.73;;
81026;SDS011;70506;49.320;8.446;2024-02-26T13:45:01;1.15;;;0.77;;
81026;SDS011;70506;49.320;8.446;2024-02-26T13:47:27;1.23;;;0.60;;
81026;SDS011;70506;49.320;8.446;2024-02-26T13:49:52;1.00;;;0.60;;
81026;SDS011;70506;49.320;8.446;2024-02-26T13:52:18;1.20;;;0.60;;
81026;SDS011;70506;49.320;8.446;2024-02-26T13:54:45;0.75;;;0.60;;
81026;SDS011;70506;49.320;8.446;2024-02-26T13:57:10;0.93;;;0.60;;
81026;SDS011;70506;49.320;8.446;2024-02-26T13:59:36;2.92;;;0.68;;
81026;SDS011;70506;49.320;8.446;2024-02-26T14:02:01;1.08;;;0.50;;
81026;SDS011;70506;49.320;8.446;2024-02-26T14:04:26;0.85;;;0.52;;
81026;SDS011;70506;49.320;8.446;2024-02-26T14:06:52;2.27;;;0.57;;
81026;SDS011;70506;49.320;8.446;2024-02-26T14:09:17;0.73;;;0.50;;
81026;SDS011;70506;49.320;8.446;2024-02-26T14:11:44;0.45;;;0.40;;
81026;SDS011;70506;49.320;8.446;2024-02-26T14:14:10;0.65;;;0.50;;
81026;SDS011;70506;49.320;8.446;2024-02-26T14:16:35;2.47;;;0.63;;
81026;SDS011;70506;49.320;8.446;2024-02-26T14:19:01;0.70;;;0.40;;
81026;SDS011;70506;49.320;8.446;2024-02-26T14:21:27;0.70;;;0.52;;
81026;SDS011;70506;49.320;8.446;2024-02-26T14:23:52;0.60;;;0.40;;
81026;SDS011;70506;49.320;8.446;2024-02-26T14:26:17;0.73;;;0.50;;
81026;SDS011;70506;49.320;8.446;2024-02-26T14:28:43;0.70;;;0.60;;
81026;SDS011;70506;49.320;8.446;2024-02-26T14:31:08;0.90;;;0.50;;
81026;SDS011;70506;49.320;8.446;2024-02-26T14:33:37;0.60;;;0.40;;
81026;SDS011;70506;49.320;8.446;2024-02-26T14:36:03;0.85;;;0.52;;
81026;SDS011;70506;49.320;8.446;2024-02-26T14:38:29;1.15;;;0.47;;
81026;SDS011;70506;49.320;8.446;2024-02-26T14:40:55;1.25;;;0.35;;
81026;SDS011;70506;49.320;8.446;2024-02-26T14:43:21;0.85;;;0.40;;
81026;SDS011;70506;49.320;8.446;2024-02-26T14:45:46;0.30;;;0.30;;
81026;SDS011;70506;49.320;8.446;2024-02-26T14:48:11;0.60;;;0.43;;
81026;SDS011;70506;49.320;8.446;2024-02-26T14:50:37;0.65;;;0.30;;
81026;SDS011;70506;49.320;8.446;2024-02-26T14:53:02;0.47;;;0.30;;
81026;SDS011;70506;49.320;8.446;2024-02-26T14:55:27;2.08;;;0.30;;
81026;SDS011;70506;49.320;8.446;2024-02-26T14:57:53;0.85;;;0.38;;
81026;SDS011;70506;49.320;8.446;2024-02-26T15:02:46;0.30;;;0.25;;